Time;durP1;ratioP1;P1;durP2;ratioP2;P2;SDS_P1;SDS_P2;PMS_P1;PMS_P2;Temp;Humidity;BMP_temperature;BMP_pressure;BME280_temperature;BME280_humidity;BME280_pressure;Samples;Min_cycle;Max_cycle;Signal;HPM_P1;HPM_P2
2021/03/15 00:02:06;;;;;;;2.40;1.80;;;3.90;99.90;;;;;;5012726;28;20837;-47
2021/03/15 00:04:33;;;;;;;1.63;1.20;;;4.00;99.90;;;;;;5006441;28;20832;-46
2021/03/15 00:06:59;;;;;;;1.40;1.30;;;4.10;99.90;;;;;;5013012;28;20504;-46
2021/03/15 00:09:26;;;;;;;1.83;1.40;;;4.00;99.90;;;;;;5013076;28;20446;-46
2021/03/15 00:11:53;;;;;;;3.43;1.60;;;4.00;99.90;;;;;;5013078;28;20442;-46
2021/03/15 00:14:20;;;;;;;2.40;1.50;;;4.00;99.90;;;;;;5005322;28;20464;-46
2021/03/15 00:16:46;;;;;;;2.73;1.57;;;4.10;99.90;;;;;;5013137;28;20958;-47
2021/03/15 00:19:16;;;;;;;3.43;2.13;;;4.00;99.90;;;;;;5013462;28;20449;-46
2021/03/15 00:21:43;;;;;;;5.23;2.40;;;3.80;99.90;;;;;;5012906;28;21232;-47
2021/03/15 00:24:14;;;;;;;6.20;2.20;;;3.90;99.90;;;;;;5012338;28;20450;-47
2021/03/15 00:26:40;;;;;;;2.17;1.87;;;3.90;99.90;;;;;;5002740;28;20451;-46
2021/03/15 00:29:07;;;;;;;3.27;1.93;;;3.90;99.90;;;;;;5012515;28;20500;-46
2021/03/15 00:31:34;;;;;;;3.57;2.30;;;4.10;99.90;;;;;;5012369;28;20602;-46
2021/03/15 00:34:00;;;;;;;2.90;2.00;;;4.20;99.90;;;;;;5000005;28;20959;-47
2021/03/15 00:36:27;;;;;;;2.17;1.83;;;4.20;99.90;;;;;;5007618;28;20460;-46
2021/03/15 00:38:53;;;;;;;2.07;1.57;;;4.30;99.90;;;;;;5012424;28;20481;-47
2021/03/15 00:41:20;;;;;;;1.93;1.50;;;4.20;99.90;;;;;;5012245;28;20489;-47
2021/03/15 00:43:46;;;;;;;1.47;1.37;;;4.20;99.90;;;;;;5010977;28;20450;-46
2021/03/15 00:46:13;;;;;;;1.67;1.40;;;4.30;99.90;;;;;;5011658;28;20458;-46
2021/03/15 00:48:40;;;;;;;2.33;1.40;;;4.30;99.90;;;;;;5012443;28;20508;-47
2021/03/15 00:51:06;;;;;;;2.70;1.40;;;4.00;99.90;;;;;;5012107;28;20469;-47
2021/03/15 00:53:33;;;;;;;2.10;1.90;;;3.90;99.90;;;;;;5003805;28;20451;-46
2021/03/15 00:55:59;;;;;;;1.53;1.40;;;4.00;99.90;;;;;;4995903;28;20445;-47
2021/03/15 00:58:25;;;;;;;1.70;1.60;;;4.10;99.90;;;;;;5011570;28;20484;-47
2021/03/15 01:00:52;;;;;;;1.80;1.70;;;4.10;99.90;;;;;;5041814;22;20489;-48
2021/03/15 01:03:19;;;;;;;1.47;1.37;;;4.10;99.90;;;;;;5024407;28;20445;-49
2021/03/15 01:05:48;;;;;;;2.23;1.43;;;4.20;99.90;;;;;;5030846;28;20452;-50
2021/03/15 01:08:16;;;;;;;2.83;1.73;;;4.20;99.90;;;;;;5019216;28;20511;-49
2021/03/15 01:10:45;;;;;;;2.27;1.73;;;4.10;99.90;;;;;;5011865;28;20466;-49
2021/03/15 01:13:11;;;;;;;2.33;1.90;;;4.20;99.90;;;;;;5023235;28;20448;-49
2021/03/15 01:15:39;;;;;;;2.23;1.73;;;4.20;99.90;;;;;;5031691;28;20445;-49
2021/03/15 01:18:06;;;;;;;3.47;2.63;;;4.30;99.90;;;;;;5031328;28;20441;-49
2021/03/15 01:20:34;;;;;;;4.07;2.43;;;4.30;99.90;;;;;;5031447;28;20979;-49
2021/03/15 01:23:01;;;;;;;3.13;1.93;;;4.30;99.90;;;;;;5030159;28;20453;-49
2021/03/15 01:25:32;;;;;;;3.10;2.53;;;4.30;99.90;;;;;;5031244;28;20456;-50
2021/03/15 01:27:58;;;;;;;4.10;2.43;;;4.40;99.90;;;;;;5031493;28;20449;-49
2021/03/15 01:30:27;;;;;;;3.30;2.10;;;4.40;99.90;;;;;;5031252;28;20821;-49
2021/03/15 01:32:53;;;;;;;3.77;2.37;;;4.20;99.90;;;;;;5029733;28;20950;-49
2021/03/15 01:35:20;;;;;;;3.40;2.20;;;4.20;99.90;;;;;;5023877;28;20452;-50
2021/03/15 01:37:47;;;;;;;2.53;2.10;;;4.20;99.90;;;;;;5030178;28;20456;-50
2021/03/15 01:40:15;;;;;;;3.00;2.53;;;4.20;99.90;;;;;;5011436;28;20473;-49
2021/03/15 01:42:42;;;;;;;3.93;2.53;;;4.00;99.90;;;;;;5011643;28;20489;-50
2021/03/15 01:45:09;;;;;;;2.73;2.20;;;4.00;99.90;;;;;;5011218;28;20604;-50
2021/03/15 01:47:37;;;;;;;3.07;2.33;;;4.00;99.90;;;;;;5012680;28;20488;-50
2021/03/15 01:50:06;;;;;;;3.07;1.80;;;4.10;99.90;;;;;;5030814;28;20523;-49
2021/03/15 01:52:33;;;;;;;2.10;1.90;;;4.20;99.90;;;;;;5031051;28;20558;-49
2021/03/15 01:55:01;;;;;;;2.03;1.83;;;4.40;99.90;;;;;;5030969;28;20459;-49
2021/03/15 01:57:27;;;;;;;2.23;2.03;;;4.50;99.90;;;;;;5030950;28;20467;-49
2021/03/15 01:59:53;;;;;;;2.30;2.10;;;4.50;99.90;;;;;;5030824;28;20451;-49
2021/03/15 02:02:20;;;;;;;3.33;2.10;;;4.50;99.90;;;;;;5026517;28;20504;-49
2021/03/15 02:04:47;;;;;;;2.83;2.23;;;4.40;99.90;;;;;;5030483;28;21047;-49
2021/03/15 02:07:14;;;;;;;2.67;2.07;;;4.40;99.90;;;;;;5030486;28;20453;-49
2021/03/15 02:09:40;;;;;;;5.03;2.00;;;4.40;99.90;;;;;;5030604;28;20453;-49
2021/03/15 02:12:29;;;;;;;2.47;1.87;;;4.10;99.90;;;;;;5030120;28;20519;-49
2021/03/15 02:15:05;;;;;;;2.30;2.00;;;4.10;99.90;;;;;;5030474;28;20455;-49
2021/03/15 02:17:40;;;;;;;3.60;2.30;;;4.20;99.90;;;;;;5030285;28;20456;-49
2021/03/15 02:20:43;;;;;;;2.17;1.97;;;4.30;99.90;;;;;;5030899;28;20464;-49
2021/03/15 02:23:14;;;;;;;2.17;1.97;;;4.30;99.90;;;;;;4992351;28;20445;-49
2021/03/15 02:26:27;;;;;;;2.80;2.07;;;4.40;99.90;;;;;;5030848;28;20456;-50
2021/03/15 02:29:37;;;;;;;3.10;2.20;;;4.20;99.90;;;;;;5030931;28;20456;-50
2021/03/15 02:32:31;;;;;;;2.80;2.23;;;4.10;99.90;;;;;;5022364;28;20469;-50
2021/03/15 02:35:08;;;;;;;2.43;2.03;;;4.20;99.90;;;;;;5011190;28;20461;-50
2021/03/15 02:37:37;;;;;;;6.30;2.63;;;4.10;99.90;;;;;;5016023;28;20959;-50
2021/03/15 02:40:08;;;;;;;5.07;2.57;;;4.10;99.90;;;;;;5030915;28;20455;-50
2021/03/15 02:42:36;;;;;;;6.03;2.60;;;4.20;99.90;;;;;;5034022;28;20493;-50
2021/03/15 02:45:07;;;;;;;5.27;2.60;;;4.30;99.90;;;;;;5033704;28;20449;-50
2021/03/15 02:47:39;;;;;;;2.20;2.00;;;4.30;99.90;;;;;;5030421;28;20491;-50
2021/03/15 02:50:09;;;;;;;2.90;2.60;;;4.40;99.90;;;;;;5034420;28;20542;-50
2021/03/15 02:52:41;;;;;;;2.83;2.40;;;4.40;99.90;;;;;;5022704;28;20846;-50
2021/03/15 02:55:09;;;;;;;4.40;2.80;;;4.40;99.90;;;;;;5014716;28;20466;-50
2021/03/15 02:57:36;;;;;;;3.53;2.50;;;4.40;99.90;;;;;;5014587;28;20464;-50
2021/03/15 03:00:06;;;;;;;3.00;2.30;;;4.30;99.90;;;;;;5032382;28;20448;-50
2021/03/15 03:02:35;;;;;;;5.00;2.40;;;4.10;99.90;;;;;;5023105;28;20488;-50
2021/03/15 03:05:06;;;;;;;2.43;2.23;;;4.30;99.90;;;;;;5014911;28;20460;-49
2021/03/15 03:07:36;;;;;;;4.60;2.70;;;4.10;99.90;;;;;;5034374;28;20543;-50
2021/03/15 03:10:05;;;;;;;2.60;2.20;;;4.20;99.90;;;;;;5034083;28;20452;-50
2021/03/15 03:12:32;;;;;;;3.20;2.30;;;4.40;99.90;;;;;;5028726;28;20452;-50
2021/03/15 03:15:01;;;;;;;3.63;2.67;;;4.30;99.90;;;;;;5033464;28;20449;-49
2021/03/15 03:17:30;;;;;;;5.33;2.20;;;4.40;99.90;;;;;;5033910;28;20452;-49
2021/03/15 03:19:57;;;;;;;4.20;2.13;;;4.50;99.90;;;;;;5034001;28;20452;-50
2021/03/15 03:22:24;;;;;;;5.47;2.23;;;4.50;99.90;;;;;;5024393;28;20892;-50
2021/03/15 03:24:54;;;;;;;2.20;2.00;;;4.50;99.90;;;;;;5013833;28;20449;-50
2021/03/15 03:27:21;;;;;;;3.90;2.50;;;4.40;99.90;;;;;;5025100;28;20967;-50
2021/03/15 03:29:49;;;;;;;4.87;2.63;;;4.30;99.90;;;;;;5033073;28;21170;-50
2021/03/15 03:32:17;;;;;;;2.40;2.20;;;4.30;99.90;;;;;;5025849;28;20445;-49
2021/03/15 03:34:44;;;;;;;1.30;1.20;;;4.30;99.90;;;;;;5013945;28;20452;-50
2021/03/15 03:37:11;;;;;;;2.10;1.90;;;4.40;99.90;;;;;;5032066;28;20482;-50
2021/03/15 03:39:37;;;;;;;2.57;1.50;;;4.50;99.90;;;;;;5033733;28;20455;-50
2021/03/15 03:42:06;;;;;;;2.30;1.70;;;4.40;99.90;;;;;;5033024;28;20485;-49
2021/03/15 03:44:32;;;;;;;1.87;1.67;;;4.40;99.90;;;;;;5033434;28;21247;-50
2021/03/15 03:46:58;;;;;;;3.50;2.00;;;4.40;99.90;;;;;;5033442;28;20452;-50
2021/03/15 03:49:25;;;;;;;2.27;2.07;;;4.30;99.90;;;;;;5033946;28;20449;-50
2021/03/15 03:51:58;;;;;;;3.27;1.77;;;4.30;99.90;;;;;;5032327;28;20469;-50
2021/03/15 03:54:28;;;;;;;1.73;1.60;;;4.40;99.90;;;;;;5027637;28;20453;-49
2021/03/15 03:56:59;;;;;;;3.57;1.70;;;4.50;99.90;;;;;;5013695;28;20445;-50
2021/03/15 03:59:30;;;;;;;1.73;1.63;;;4.50;99.90;;;;;;5013869;28;20456;-50
2021/03/15 04:01:59;;;;;;;2.03;1.93;;;4.40;99.90;;;;;;5030571;28;21030;-50
2021/03/15 04:04:31;;;;;;;1.37;1.27;;;4.40;99.90;;;;;;5032942;28;21015;-50
2021/03/15 04:07:00;;;;;;;2.87;1.80;;;4.50;99.90;;;;;;5033152;28;20448;-50
2021/03/15 04:09:30;;;;;;;1.93;1.70;;;4.50;99.90;;;;;;5032598;28;20452;-50
2021/03/15 04:11:59;;;;;;;2.13;1.90;;;4.60;99.90;;;;;;5014834;28;20512;-50
2021/03/15 04:14:30;;;;;;;3.50;1.80;;;4.40;99.90;;;;;;5013060;28;20482;-49
2021/03/15 04:16:59;;;;;;;2.80;2.60;;;4.40;99.90;;;;;;5013280;28;20445;-50
2021/03/15 04:19:32;;;;;;;2.23;2.03;;;4.30;99.90;;;;;;5013172;28;20503;-49
2021/03/15 04:22:04;;;;;;;2.13;1.37;;;4.40;99.90;;;;;;5030141;28;20511;-49
2021/03/15 04:24:32;;;;;;;2.60;1.87;;;4.30;99.90;;;;;;5032193;28;20448;-49
2021/03/15 04:27:00;;;;;;;5.47;1.83;;;4.40;99.90;;;;;;5032451;28;21079;-49
2021/03/15 04:29:29;;;;;;;3.40;1.80;;;4.40;99.90;;;;;;5032559;28;20452;-49
2021/03/15 04:31:56;;;;;;;2.37;1.63;;;4.50;99.90;;;;;;5015433;28;20476;-49
2021/03/15 04:34:24;;;;;;;2.20;1.77;;;4.40;99.90;;;;;;5030803;28;20452;-50
2021/03/15 04:36:51;;;;;;;1.70;1.60;;;4.40;99.90;;;;;;5032226;28;20448;-49
2021/03/15 04:39:18;;;;;;;2.47;1.53;;;4.40;99.90;;;;;;5032018;28;20453;-48
2021/03/15 04:41:45;;;;;;;4.10;1.30;;;4.60;99.90;;;;;;5031577;28;20480;-49
2021/03/15 04:44:14;;;;;;;1.43;1.33;;;4.50;99.90;;;;;;5031780;28;20460;-49
2021/03/15 04:46:42;;;;;;;4.20;1.80;;;4.40;99.90;;;;;;5032481;28;20455;-49
2021/03/15 04:49:09;;;;;;;2.60;1.67;;;4.40;99.90;;;;;;5032680;28;20453;-49
2021/03/15 04:51:38;;;;;;;3.00;1.80;;;4.50;99.90;;;;;;5031974;28;20464;-49
2021/03/15 04:54:05;;;;;;;2.60;2.30;;;4.40;99.90;;;;;;5032563;28;20453;-49
2021/03/15 04:56:35;;;;;;;3.40;2.00;;;4.60;99.90;;;;;;5032177;28;20452;-49
2021/03/15 04:59:02;;;;;;;2.93;2.37;;;4.50;99.90;;;;;;5030937;28;20984;-49
2021/03/15 05:01:30;;;;;;;3.77;1.70;;;4.50;99.90;;;;;;5031166;28;20981;-49
2021/03/15 05:03:59;;;;;;;3.33;1.90;;;4.60;99.90;;;;;;5032687;28;20499;-49
2021/03/15 05:06:27;;;;;;;1.87;1.70;;;4.80;99.90;;;;;;5028970;28;20814;-49
2021/03/15 05:08:55;;;;;;;2.53;1.90;;;4.60;99.90;;;;;;5012640;28;20453;-49
2021/03/15 05:11:27;;;;;;;2.23;1.57;;;4.50;99.90;;;;;;5032760;28;20891;-49
2021/03/15 05:13:54;;;;;;;2.37;1.97;;;4.50;99.90;;;;;;5042868;28;20448;-50
2021/03/15 05:16:22;;;;;;;1.97;1.70;;;4.50;99.90;;;;;;5030697;28;21116;-49
2021/03/15 05:18:52;;;;;;;2.30;1.70;;;4.50;99.90;;;;;;5013797;28;20449;-49
2021/03/15 05:21:21;;;;;;;2.77;1.63;;;4.40;99.90;;;;;;5039382;28;20561;-49
2021/03/15 05:23:47;;;;;;;2.07;1.87;;;4.20;99.90;;;;;;5051664;28;20447;-49
2021/03/15 05:26:14;;;;;;;2.00;1.80;;;4.10;99.90;;;;;;5044252;28;20471;-49
2021/03/15 05:28:42;;;;;;;2.33;2.10;;;4.30;99.90;;;;;;5023749;28;20499;-49
2021/03/15 05:31:12;;;;;;;2.70;1.90;;;4.30;99.90;;;;;;5032033;28;20615;-49
2021/03/15 05:33:39;;;;;;;4.30;2.13;;;4.30;99.90;;;;;;5026846;28;20475;-49
2021/03/15 05:36:10;;;;;;;2.20;2.00;;;4.20;99.90;;;;;;5029511;28;20495;-49
2021/03/15 05:38:38;;;;;;;4.27;2.00;;;4.10;99.90;;;;;;5026216;28;20449;-49
2021/03/15 05:41:09;;;;;;;2.90;2.13;;;4.10;99.90;;;;;;5031016;28;20472;-49
2021/03/15 05:44:10;;;;;;;2.97;2.00;;;4.10;99.90;;;;;;5029682;28;20487;-49
2021/03/15 05:47:03;;;;;;;3.13;2.13;;;4.20;99.90;;;;;;5001430;28;20456;-49
2021/03/15 05:50:09;;;;;;;3.53;1.87;;;4.30;99.90;;;;;;5018922;28;20451;-48
2021/03/15 05:52:57;;;;;;;2.40;1.97;;;4.10;99.90;;;;;;4948887;29;20451;-49
2021/03/15 05:55:45;;;;;;;7.83;2.00;;;3.90;99.90;;;;;;4949756;28;20463;-49
2021/03/15 05:58:58;;;;;;;1.77;1.63;;;3.90;99.90;;;;;;5012822;28;20480;-48
2021/03/15 06:01:54;;;;;;;3.73;2.30;;;3.80;99.90;;;;;;4978233;28;20512;-49
2021/03/15 06:04:56;;;;;;;2.23;1.83;;;3.90;99.90;;;;;;5035053;28;20459;-49
2021/03/15 06:07:37;;;;;;;3.37;1.80;;;3.90;99.90;;;;;;5004070;28;20456;-49
2021/03/15 06:10:09;;;;;;;3.57;2.13;;;3.80;99.90;;;;;;5030668;28;20531;-48
2021/03/15 06:12:47;;;;;;;4.17;2.10;;;3.90;99.90;;;;;;5030845;28;20834;-49
2021/03/15 06:15:18;;;;;;;5.70;2.80;;;4.00;99.90;;;;;;5024749;28;20463;-49
2021/03/15 06:17:45;;;;;;;4.37;2.73;;;4.00;99.90;;;;;;5030599;28;20440;-49
2021/03/15 06:20:14;;;;;;;3.33;2.53;;;3.90;99.90;;;;;;5030564;28;20996;-49
2021/03/15 06:22:42;;;;;;;2.50;2.20;;;4.00;99.90;;;;;;5030108;28;20477;-49
2021/03/15 06:25:13;;;;;;;6.20;2.43;;;4.00;99.90;;;;;;5029695;28;20456;-49
2021/03/15 06:27:42;;;;;;;2.60;2.30;;;4.00;99.90;;;;;;5030256;28;20459;-49
2021/03/15 06:30:10;;;;;;;2.63;1.70;;;4.10;99.90;;;;;;5030177;28;20581;-49
2021/03/15 06:32:37;;;;;;;3.00;2.00;;;4.00;99.90;;;;;;5031097;28;20451;-49
2021/03/15 06:35:04;;;;;;;3.17;1.87;;;4.00;99.90;;;;;;5030029;28;20456;-49
2021/03/15 06:37:31;;;;;;;2.40;1.90;;;3.90;99.90;;;;;;5027227;28;20464;-50
2021/03/15 06:39:59;;;;;;;5.80;3.00;;;3.90;99.90;;;;;;5037457;28;20448;-49
2021/03/15 06:42:28;;;;;;;3.40;1.97;;;3.80;99.90;;;;;;5032510;28;20476;-50
2021/03/15 06:44:56;;;;;;;3.30;1.87;;;3.80;99.90;;;;;;5050994;28;20450;-49
2021/03/15 06:47:23;;;;;;;3.03;2.23;;;3.60;99.90;;;;;;5034518;28;20455;-49
2021/03/15 06:49:50;;;;;;;3.23;2.50;;;3.40;99.90;;;;;;5031118;28;20463;-49
2021/03/15 06:52:16;;;;;;;5.33;2.50;;;3.40;99.90;;;;;;5031004;28;20444;-49
2021/03/15 06:54:43;;;;;;;2.17;1.70;;;3.30;99.90;;;;;;5030358;28;20448;-49
2021/03/15 06:57:18;;;;;;;3.13;2.67;;;3.20;99.90;;;;;;5029625;28;20535;-49
2021/03/15 06:59:52;;;;;;;7.80;2.07;;;3.30;99.90;;;;;;5012841;28;20452;-48
2021/03/15 07:02:26;;;;;;;3.57;2.00;;;3.40;99.90;;;;;;5050745;22;20637;-46
2021/03/15 07:04:53;;;;;;;2.50;2.00;;;3.30;99.90;;;;;;5029664;28;20462;-47
2021/03/15 07:07:25;;;;;;;2.80;2.30;;;2.90;99.90;;;;;;5030045;28;20441;-47
2021/03/15 07:09:52;;;;;;;3.30;2.20;;;2.60;99.90;;;;;;5029474;28;20451;-47
2021/03/15 07:12:20;;;;;;;5.37;2.60;;;2.50;99.90;;;;;;5033541;28;20986;-47
2021/03/15 07:14:48;;;;;;;4.70;3.10;;;2.60;99.90;;;;;;5042590;28;20535;-47
2021/03/15 07:17:26;;;;;;;7.93;3.43;;;2.60;99.90;;;;;;5046375;28;20448;-47
2021/03/15 07:19:53;;;;;;;8.80;5.60;;;2.50;99.90;;;;;;5046591;28;20440;-47
2021/03/15 07:22:21;;;;;;;5.20;3.37;;;2.50;99.90;;;;;;5052101;28;20487;-47
2021/03/15 07:25:07;;;;;;;5.63;3.90;;;2.50;99.90;;;;;;5053402;28;20862;-46
2021/03/15 07:27:36;;;;;;;9.30;3.87;;;2.40;99.90;;;;;;5053514;28;20881;-47
2021/03/15 07:30:27;;;;;;;6.60;4.03;;;2.30;99.90;;;;;;5053491;28;20450;-47
2021/03/15 07:32:55;;;;;;;9.43;4.60;;;2.20;99.90;;;;;;5035981;28;20440;-46
2021/03/15 07:35:26;;;;;;;9.50;4.10;;;2.20;99.90;;;;;;5033277;28;20452;-47
2021/03/15 07:37:52;;;;;;;6.30;4.10;;;2.20;99.90;;;;;;5033427;28;20467;-47
2021/03/15 07:40:44;;;;;;;9.77;5.00;;;2.20;99.90;;;;;;5045157;28;20929;-47
2021/03/15 07:43:13;;;;;;;7.50;3.60;;;2.30;99.90;;;;;;5053399;28;20487;-47
2021/03/15 07:45:42;;;;;;;10.30;4.30;;;2.50;99.90;;;;;;5053002;28;20940;-47
2021/03/15 07:48:12;;;;;;;6.83;3.80;;;2.40;99.90;;;;;;5049904;28;20463;-47
2021/03/15 07:50:40;;;;;;;6.73;3.50;;;2.30;99.90;;;;;;5033661;28;20476;-46
2021/03/15 07:53:07;;;;;;;5.80;2.87;;;2.20;99.90;;;;;;5033652;28;20446;-47
2021/03/15 07:55:38;;;;;;;6.63;4.33;;;2.20;99.90;;;;;;5033394;28;20506;-47
2021/03/15 07:58:27;;;;;;;5.30;3.53;;;2.30;99.90;;;;;;5033387;28;20451;-47
2021/03/15 08:00:55;;;;;;;6.60;3.97;;;2.20;99.90;;;;;;5032865;28;20485;-47
2021/03/15 08:03:24;;;;;;;4.20;3.30;;;2.30;99.90;;;;;;5033083;28;20491;-47
2021/03/15 08:05:51;;;;;;;4.40;3.40;;;2.50;99.90;;;;;;5033470;28;20452;-47
2021/03/15 08:08:18;;;;;;;6.53;3.43;;;2.40;99.90;;;;;;5034163;28;20460;-46
2021/03/15 08:10:45;;;;;;;4.40;3.30;;;2.50;99.90;;;;;;5032932;28;20514;-47
2021/03/15 08:13:12;;;;;;;4.93;3.00;;;2.40;99.90;;;;;;5037149;28;20894;-46
2021/03/15 08:15:40;;;;;;;5.53;3.10;;;2.50;99.90;;;;;;5032670;28;20506;-46
2021/03/15 08:18:09;;;;;;;4.97;3.30;;;2.50;99.90;;;;;;5043350;28;20521;-47
2021/03/15 08:20:42;;;;;;;3.60;2.90;;;2.60;99.90;;;;;;5052024;28;20507;-47
2021/03/15 08:23:12;;;;;;;5.57;3.47;;;2.60;99.90;;;;;;5045141;28;20482;-47
2021/03/15 08:25:42;;;;;;;3.33;2.97;;;2.70;99.90;;;;;;5047305;28;20461;-47
2021/03/15 08:28:11;;;;;;;3.40;2.70;;;2.60;99.90;;;;;;5030818;28;20471;-46
2021/03/15 08:30:43;;;;;;;5.37;3.07;;;2.90;99.90;;;;;;5041682;28;20495;-47
2021/03/15 08:33:13;;;;;;;4.20;3.47;;;2.70;99.90;;;;;;5033189;28;20525;-48
2021/03/15 08:35:41;;;;;;;4.67;3.43;;;2.80;99.90;;;;;;5037240;28;20463;-47
2021/03/15 08:38:09;;;;;;;4.80;3.10;;;2.90;99.90;;;;;;5042825;28;20474;-47
2021/03/15 08:40:51;;;;;;;5.87;3.50;;;3.10;99.90;;;;;;5035614;28;21016;-47
2021/03/15 08:43:45;;;;;;;3.43;3.03;;;3.20;99.90;;;;;;5039327;28;20500;-47
2021/03/15 08:46:17;;;;;;;4.53;3.23;;;3.10;99.90;;;;;;5029054;28;20451;-47
2021/03/15 08:49:02;;;;;;;4.07;3.20;;;3.30;99.90;;;;;;5030917;28;20464;-47
2021/03/15 08:51:47;;;;;;;5.30;3.93;;;3.40;99.90;;;;;;5035014;28;20467;-47
2021/03/15 08:54:37;;;;;;;5.23;3.73;;;3.50;99.90;;;;;;5031696;28;20474;-47
2021/03/15 08:57:05;;;;;;;5.63;3.67;;;3.60;99.90;;;;;;5030867;28;21084;-48
2021/03/15 08:59:33;;;;;;;8.77;5.20;;;3.60;99.90;;;;;;5039333;28;20471;-47
2021/03/15 09:02:05;;;;;;;7.30;4.70;;;3.30;99.90;;;;;;5047357;28;20545;-47
2021/03/15 09:04:43;;;;;;;7.63;4.63;;;3.30;99.90;;;;;;5040940;28;20521;-47
2021/03/15 09:07:43;;;;;;;8.07;3.60;;;3.40;99.90;;;;;;5046508;28;21227;-47
2021/03/15 09:10:45;;;;;;;3.20;2.87;;;3.40;99.90;;;;;;5028418;28;20460;-47
2021/03/15 09:13:20;;;;;;;4.00;2.97;;;3.50;99.90;;;;;;5031141;28;20483;-47
2021/03/15 09:15:56;;;;;;;4.20;2.80;;;3.60;99.90;;;;;;5030635;28;20456;-47
2021/03/15 09:18:50;;;;;;;4.50;2.80;;;3.60;99.90;;;;;;5034000;28;20463;-47
2021/03/15 09:21:51;;;;;;;4.60;2.80;;;3.60;99.90;;;;;;5031915;28;20488;-47
2021/03/15 09:24:49;;;;;;;3.73;2.97;;;3.60;99.90;;;;;;5024083;28;20462;-47
2021/03/15 09:27:32;;;;;;;4.07;2.87;;;3.60;99.90;;;;;;4969429;28;20474;-47
2021/03/15 09:30:00;;;;;;;9.13;3.50;;;3.70;99.90;;;;;;5023679;28;20477;-47
2021/03/15 09:32:29;;;;;;;5.00;3.43;;;3.70;99.90;;;;;;5039018;28;20512;-48
2021/03/15 09:34:57;;;;;;;4.10;2.80;;;3.80;99.90;;;;;;5032827;28;20488;-47
2021/03/15 09:37:23;;;;;;;4.10;3.20;;;3.70;99.90;;;;;;5038501;28;20491;-47
2021/03/15 09:39:50;;;;;;;4.57;2.90;;;3.60;99.90;;;;;;5030960;28;21027;-47
2021/03/15 09:42:18;;;;;;;5.67;3.40;;;3.60;99.90;;;;;;5032454;28;20492;-47
2021/03/15 09:44:46;;;;;;;3.13;2.70;;;3.60;99.90;;;;;;5037283;28;20559;-46
2021/03/15 09:47:23;;;;;;;5.10;2.93;;;3.60;99.90;;;;;;5029226;28;20467;-47
2021/03/15 09:49:50;;;;;;;6.03;3.10;;;3.70;99.90;;;;;;5029948;28;21019;-47
2021/03/15 09:52:20;;;;;;;5.13;2.83;;;3.90;99.90;;;;;;5031287;28;20851;-47
2021/03/15 09:54:48;;;;;;;2.97;2.57;;;4.10;99.90;;;;;;5027915;28;20457;-47
2021/03/15 09:57:15;;;;;;;4.63;2.43;;;4.00;99.90;;;;;;5025582;28;20467;-47
2021/03/15 09:59:42;;;;;;;3.17;2.50;;;4.00;99.90;;;;;;5028341;28;20535;-47
2021/03/15 10:02:10;;;;;;;2.73;2.30;;;4.00;99.90;;;;;;5029824;28;20491;-47
2021/03/15 10:04:37;;;;;;;2.40;2.20;;;4.00;99.90;;;;;;5025026;28;20953;-46
2021/03/15 10:07:07;;;;;;;3.83;2.40;;;4.20;99.90;;;;;;5028636;28;20954;-47
2021/03/15 10:09:38;;;;;;;5.10;2.47;;;4.10;99.90;;;;;;5029321;28;20464;-47
2021/03/15 10:12:06;;;;;;;5.47;3.10;;;4.10;99.90;;;;;;5029078;28;20488;-47
2021/03/15 10:14:32;;;;;;;6.03;3.30;;;3.90;99.90;;;;;;5026325;28;20517;-47
2021/03/15 10:17:00;;;;;;;10.03;2.90;;;3.90;99.90;;;;;;5026854;28;20479;-46
2021/03/15 10:19:30;;;;;;;3.77;2.73;;;3.90;99.90;;;;;;5038920;28;21077;-47
2021/03/15 10:22:09;;;;;;;3.10;2.77;;;3.90;99.90;;;;;;5049136;28;20541;-47
2021/03/15 10:24:38;;;;;;;4.17;2.93;;;3.80;99.90;;;;;;5049703;28;20494;-47
2021/03/15 10:27:06;;;;;;;3.57;2.63;;;3.80;99.90;;;;;;5050323;28;20452;-47
2021/03/15 10:29:34;;;;;;;2.63;2.17;;;3.90;99.90;;;;;;5050108;28;20463;-47
2021/03/15 10:32:02;;;;;;;2.43;1.93;;;4.10;99.90;;;;;;5063970;28;20466;-46
2021/03/15 10:34:30;;;;;;;1.53;1.17;;;4.30;99.90;;;;;;5034074;28;20448;-47
2021/03/15 10:36:58;;;;;;;1.40;0.97;;;4.10;99.90;;;;;;5030390;28;20457;-47
2021/03/15 10:39:25;;;;;;;1.60;1.10;;;4.00;99.90;;;;;;5042922;28;20489;-47
2021/03/15 10:41:53;;;;;;;1.23;0.93;;;4.10;99.90;;;;;;5043744;28;20509;-47
2021/03/15 10:44:21;;;;;;;1.30;1.20;;;4.20;99.90;;;;;;5049983;28;20451;-47
2021/03/15 10:46:51;;;;;;;1.20;1.00;;;4.10;99.90;;;;;;5030151;28;20816;-47
2021/03/15 10:49:23;;;;;;;1.20;1.10;;;4.10;99.90;;;;;;5029814;28;20862;-46
2021/03/15 10:51:52;;;;;;;1.03;1.00;;;4.20;99.90;;;;;;5028556;28;20257;-47
2021/03/15 10:54:33;;;;;;;1.20;1.10;;;4.30;99.90;;;;;;5029921;28;20484;-46
2021/03/15 10:57:27;;;;;;;1.83;1.50;;;4.30;99.90;;;;;;5048352;28;20470;-47
2021/03/15 10:59:55;;;;;;;2.03;1.53;;;4.20;99.90;;;;;;5042148;28;20466;-46
2021/03/15 11:02:23;;;;;;;2.30;1.30;;;4.20;99.90;;;;;;5053585;28;20487;-47
2021/03/15 11:04:56;;;;;;;1.40;1.30;;;4.10;99.90;;;;;;5036747;28;20483;-46
2021/03/15 11:07:28;;;;;;;1.30;0.97;;;4.10;99.90;;;;;;5033613;28;21017;-47
2021/03/15 11:10:05;;;;;;;1.23;1.13;;;3.90;99.90;;;;;;5033792;28;20456;-47
2021/03/15 11:12:42;;;;;;;1.10;1.00;;;4.10;99.90;;;;;;5033532;28;20475;-46
2021/03/15 11:15:18;;;;;;;2.28;1.60;;;4.10;99.90;;;;;;5030649;28;20942;-47
2021/03/15 11:18:00;;;;;;;1.40;1.30;;;4.10;99.90;;;;;;5032969;28;20197;-48
2021/03/15 11:20:36;;;;;;;2.17;1.40;;;4.30;99.90;;;;;;5042865;28;20451;-47
2021/03/15 11:23:03;;;;;;;1.40;1.30;;;4.20;99.90;;;;;;5036651;28;20511;-47
2021/03/15 11:25:31;;;;;;;1.40;1.20;;;4.30;99.90;;;;;;5036147;28;20472;-47
2021/03/15 11:28:04;;;;;;;1.37;1.23;;;4.40;99.90;;;;;;5038053;28;20474;-47
2021/03/15 11:30:31;;;;;;;1.93;1.30;;;4.40;99.90;;;;;;5032900;28;20484;-47
2021/03/15 11:33:03;;;;;;;1.60;1.40;;;4.40;99.90;;;;;;5032244;28;20853;-48
2021/03/15 11:35:30;;;;;;;1.80;1.30;;;4.50;99.90;;;;;;5051044;28;20987;-47
2021/03/15 11:37:58;;;;;;;1.50;1.07;;;4.60;99.90;;;;;;5051865;28;20454;-47
2021/03/15 11:40:46;;;;;;;1.17;1.07;;;4.70;99.90;;;;;;5042303;28;21023;-47
2021/03/15 11:43:14;;;;;;;2.00;1.20;;;4.90;99.90;;;;;;5028612;28;21024;-47
2021/03/15 11:45:41;;;;;;;2.80;1.20;;;5.10;99.90;;;;;;5033824;28;20958;-47
2021/03/15 11:48:08;;;;;;;1.50;1.40;;;5.10;99.90;;;;;;5033104;28;20526;-47
2021/03/15 11:50:38;;;;;;;1.40;1.30;;;5.00;99.90;;;;;;5033001;28;20527;-47
2021/03/15 11:53:06;;;;;;;1.77;1.33;;;5.30;99.90;;;;;;5047190;28;20467;-47
2021/03/15 11:55:32;;;;;;;1.90;1.50;;;5.20;99.90;;;;;;5032640;28;20467;-47
2021/03/15 11:58:00;;;;;;;4.23;1.73;;;5.40;99.90;;;;;;5031092;28;20488;-47
2021/03/15 12:00:27;;;;;;;2.17;1.60;;;5.50;99.90;;;;;;5032193;28;20896;-47
2021/03/15 12:02:54;;;;;;;2.00;1.70;;;5.40;99.90;;;;;;5032426;28;20493;-47
2021/03/15 12:05:22;;;;;;;2.27;1.40;;;5.40;99.90;;;;;;5032682;28;20440;-47
2021/03/15 12:07:49;;;;;;;1.40;1.30;;;5.40;99.90;;;;;;5031951;28;20953;-47
2021/03/15 12:10:16;;;;;;;1.20;1.10;;;5.50;99.90;;;;;;5032413;28;20468;-47
2021/03/15 12:12:43;;;;;;;1.87;1.50;;;5.60;99.90;;;;;;5032036;28;20457;-47
2021/03/15 12:15:13;;;;;;;1.30;1.20;;;5.50;99.90;;;;;;5032302;28;20521;-47
2021/03/15 12:17:40;;;;;;;1.30;1.20;;;5.30;99.90;;;;;;5030030;28;20498;-48
2021/03/15 12:20:09;;;;;;;1.30;1.13;;;5.30;99.90;;;;;;5031940;28;20468;-48
2021/03/15 12:22:36;;;;;;;1.20;1.10;;;5.30;99.90;;;;;;5043371;28;20479;-48
2021/03/15 12:25:05;;;;;;;1.40;1.30;;;5.50;99.90;;;;;;5027518;28;20515;-47
2021/03/15 12:27:31;;;;;;;1.37;1.27;;;5.50;99.90;;;;;;5028248;28;21081;-46
2021/03/15 12:29:58;;;;;;;1.40;1.30;;;5.40;99.90;;;;;;5029134;28;20472;-47
2021/03/15 12:32:25;;;;;;;1.30;1.20;;;5.40;99.90;;;;;;5027925;28;20491;-47
2021/03/15 12:34:52;;;;;;;4.40;2.77;;;5.60;99.90;;;;;;5028745;28;20460;-47
2021/03/15 12:37:19;;;;;;;3.83;2.80;;;5.80;99.90;;;;;;5029366;28;20457;-47
2021/03/15 12:39:47;;;;;;;5.87;3.20;;;5.80;99.90;;;;;;5027972;28;20457;-47
2021/03/15 12:42:14;;;;;;;2.80;2.27;;;5.80;99.90;;;;;;5028547;28;20559;-46
2021/03/15 12:44:41;;;;;;;2.83;1.77;;;5.80;99.90;;;;;;5025664;28;21522;-47
2021/03/15 12:47:07;;;;;;;2.60;1.90;;;5.80;99.90;;;;;;5029877;28;20478;-47
2021/03/15 12:49:35;;;;;;;1.90;1.73;;;6.10;99.90;;;;;;5028257;28;20460;-47
2021/03/15 12:52:02;;;;;;;1.13;0.97;;;6.10;99.90;;;;;;5029057;28;20477;-47
2021/03/15 12:54:28;;;;;;;0.90;0.90;;;6.10;99.90;;;;;;5035110;28;20492;-47
2021/03/15 12:56:56;;;;;;;0.87;0.87;;;6.00;99.90;;;;;;5043591;28;20470;-47
2021/03/15 12:59:22;;;;;;;1.00;0.90;;;6.10;99.90;;;;;;5033626;28;20882;-47
2021/03/15 13:01:49;;;;;;;1.47;1.07;;;6.20;99.90;;;;;;5039995;28;20485;-47
2021/03/15 13:04:16;;;;;;;1.50;1.00;;;6.20;99.90;;;;;;5040921;28;20525;-48
2021/03/15 13:06:44;;;;;;;1.93;1.00;;;6.20;99.90;;;;;;5050890;28;20455;-47
2021/03/15 13:09:10;;;;;;;0.80;0.80;;;6.30;99.90;;;;;;5044998;28;20471;-47
2021/03/15 13:11:37;;;;;;;0.80;0.80;;;6.30;99.90;;;;;;5039544;28;20858;-47
2021/03/15 13:14:04;;;;;;;2.10;0.90;;;6.40;99.90;;;;;;5051881;28;20455;-46
2021/03/15 13:16:31;;;;;;;1.37;0.90;;;6.50;99.90;;;;;;5064720;28;21175;-46
2021/03/15 13:18:57;;;;;;;1.00;0.90;;;6.70;99.90;;;;;;5063640;22;21023;-50